sensor_id;sensor_type;location;lat;lon;timestamp;temperature;humidity
22968;DHT22;11650;48.106;-1.696;2024-03-29T00:00:36;7.90;99.90
22968;DHT22;11650;48.106;-1.696;2024-03-29T00:03:02;7.90;99.90
22968;DHT22;11650;48.106;-1.696;2024-03-29T00:05:28;7.90;99.90
22968;DHT22;11650;48.106;-1.696;2024-03-29T00:07:54;7.90;99.90
22968;DHT22;11650;48.106;-1.696;2024-03-29T00:10:19;7.90;99.90
22968;DHT22;11650;48.106;-1.696;2024-03-29T00:12:45;7.90;99.90
22968;DHT22;11650;48.106;-1.696;2024-03-29T00:15:11;7.90;99.90
22968;DHT22;11650;48.106;-1.696;2024-03-29T00:17:36;7.80;99.90
22968;DHT22;11650;48.106;-1.696;2024-03-29T00:20:02;7.80;99.90
22968;DHT22;11650;48.106;-1.696;2024-03-29T00:22:29;7.80;99.90
22968;DHT22;11650;48.106;-1.696;2024-03-29T00:24:55;7.80;99.90
22968;DHT22;11650;48.106;-1.696;2024-03-29T00:27:20;7.80;99.90
22968;DHT22;11650;48.106;-1.696;2024-03-29T00:29:51;7.80;99.90
22968;DHT22;11650;48.106;-1.696;2024-03-29T00:32:19;7.70;99.90
22968;DHT22;11650;48.106;-1.696;2024-03-29T00:34:44;7.60;99.90
22968;DHT22;11650;48.106;-1.696;2024-03-29T00:37:11;7.60;99.90
22968;DHT22;11650;48.106;-1.696;2024-03-29T00:39:37;7.60;99.90
22968;DHT22;11650;48.106;-1.696;2024-03-29T00:42:03;7.60;99.90
22968;DHT22;11650;48.106;-1.696;2024-03-29T00:44:32;7.60;99.90
22968;DHT22;11650;48.106;-1.696;2024-03-29T00:46:57;7.50;99.90
22968;DHT22;11650;48.106;-1.696;2024-03-29T00:49:23;7.50;99.90
22968;DHT22;11650;48.106;-1.696;2024-03-29T00:51:49;7.50;99.90
22968;DHT22;11650;48.106;-1.696;2024-03-29T00:54:14;7.50;99.90
22968;DHT22;11650;48.106;-1.696;2024-03-29T00:56:40;7.50;99.90
22968;DHT22;11650;48.106;-1.696;2024-03-29T00:59:06;7.50;99.90
22968;DHT22;11650;48.106;-1.696;2024-03-29T01:01:31;7.50;99.90
22968;DHT22;11650;48.106;-1.696;2024-03-29T01:03:58;7.50;99.90
22968;DHT22;11650;48.106;-1.696;2024-03-29T01:06:23;7.50;99.90
22968;DHT22;11650;48.106;-1.696;2024-03-29T01:08:49;7.50;99.90
22968;DHT22;11650;48.106;-1.696;2024-03-29T01:11:15;7.50;99.90
22968;DHT22;11650;48.106;-1.696;2024-03-29T01:13:40;7.50;99.90
22968;DHT22;11650;48.106;-1.696;2024-03-29T01:16:07;7.50;99.90
22968;DHT22;11650;48.106;-1.696;2024-03-29T01:18:32;7.50;99.90
22968;DHT22;11650;48.106;-1.696;2024-03-29T01:20:59;7.50;99.90
22968;DHT22;11650;48.106;-1.696;2024-03-29T01:23:24;7.40;99.90
22968;DHT22;11650;48.106;-1.696;2024-03-29T01:25:50;7.40;99.90
22968;DHT22;11650;48.106;-1.696;2024-03-29T01:28:16;7.40;99.90
22968;DHT22;11650;48.106;-1.696;2024-03-29T01:30:41;7.40;99.90
22968;DHT22;11650;48.106;-1.696;2024-03-29T01:33:07;7.30;99.90
22968;DHT22;11650;48.106;-1.696;2024-03-29T01:35:33;7.30;99.90
22968;DHT22;11650;48.106;-1.696;2024-03-29T01:37:58;7.30;99.90
22968;DHT22;11650;48.106;-1.696;2024-03-29T01:40:24;7.30;99.90
22968;DHT22;11650;48.106;-1.696;2024-03-29T01:42:53;7.20;99.90
22968;DHT22;11650;48.106;-1.696;2024-03-29T01:45:19;7.30;99.90
22968;DHT22;11650;48.106;-1.696;2024-03-29T01:47:45;7.30;99.90
22968;DHT22;11650;48.106;-1.696;2024-03-29T01:50:12;7.20;99.90
22968;DHT22;11650;48.106;-1.696;2024-03-29T01:52:38;7.20;99.90
22968;DHT22;11650;48.106;-1.696;2024-03-29T01:55:04;7.10;99.90
22968;DHT22;11650;48.106;-1.696;2024-03-29T01:57:29;7.10;99.90
22968;DHT22;11650;48.106;-1.696;2024-03-29T01:59:56;7.20;99.90
22968;DHT22;11650;48.106;-1.696;2024-03-29T02:02:22;7.10;99.90
22968;DHT22;11650;48.106;-1.696;2024-03-29T02:04:49;7.10;99.90
22968;DHT22;11650;48.106;-1.696;2024-03-29T02:07:15;7.10;99.90
22968;DHT22;11650;48.106;-1.696;2024-03-29T02:09:41;7.10;99.90
22968;DHT22;11650;48.106;-1.696;2024-03-29T02:12:07;7.10;99.90
22968;DHT22;11650;48.106;-1.696;2024-03-29T02:14:33;7.00;99.90
22968;DHT22;11650;48.106;-1.696;2024-03-29T02:16:59;7.00;99.90
22968;DHT22;11650;48.106;-1.696;2024-03-29T02:19:24;7.10;99.90
22968;DHT22;11650;48.106;-1.696;2024-03-29T02:21:52;7.10;99.90
22968;DHT22;11650;48.106;-1.696;2024-03-29T02:24:21;7.10;99.90
22968;DHT22;11650;48.106;-1.696;2024-03-29T02:26:48;7.10;99.90
22968;DHT22;11650;48.106;-1.696;2024-03-29T02:29:14;7.10;99.90
22968;DHT22;11650;48.106;-1.696;2024-03-29T02:31:39;7.10;99.90
22968;DHT22;11650;48.106;-1.696;2024-03-29T02:34:05;7.10;99.90
22968;DHT22;11650;48.106;-1.696;2024-03-29T02:36:33;7.10;99.90
22968;DHT22;11650;48.106;-1.696;2024-03-29T02:38:58;7.10;99.90
22968;DHT22;11650;48.106;-1.696;2024-03-29T02:41:24;7.10;99.90
22968;DHT22;11650;48.106;-1.696;2024-03-29T02:43:51;7.20;99.90
22968;DHT22;11650;48.106;-1.696;2024-03-29T02:46:17;7.20;99.90
22968;DHT22;11650;48.106;-1.696;2024-03-29T02:48:42;7.20;99.90
22968;DHT22;11650;48.106;-1.696;2024-03-29T02:51:08;7.10;99.90
22968;DHT22;11650;48.106;-1.696;2024-03-29T02:53:34;7.10;99.90
22968;DHT22;11650;48.106;-1.696;2024-03-29T02:55:59;7.10;99.90
22968;DHT22;11650;48.106;-1.696;2024-03-29T02:58:25;7.20;99.90
22968;DHT22;11650;48.106;-1.696;2024-03-29T03:00:51;7.20;99.90
22968;DHT22;11650;48.106;-1.696;2024-03-29T03:03:17;7.20;99.90
22968;DHT22;11650;48.106;-1.696;2024-03-29T03:05:43;7.20;99.90
22968;DHT22;11650;48.106;-1.696;2024-03-29T03:08:08;7.20;99.90
22968;DHT22;11650;48.106;-1.696;2024-03-29T03:10:53;7.20;99.90
22968;DHT22;11650;48.106;-1.696;2024-03-29T03:13:21;7.10;99.90
22968;DHT22;11650;48.106;-1.696;2024-03-29T03:15:47;7.10;99.90
22968;DHT22;11650;48.106;-1.696;2024-03-29T03:18:13;7.10;99.90
22968;DHT22;11650;48.106;-1.696;2024-03-29T03:20:38;7.10;99.90
22968;DHT22;11650;48.106;-1.696;2024-03-29T03:23:04;7.10;99.90
22968;DHT22;11650;48.106;-1.696;2024-03-29T03:25:29;7.00;99.90
22968;DHT22;11650;48.106;-1.696;2024-03-29T03:27:55;7.00;99.90
22968;DHT22;11650;48.106;-1.696;2024-03-29T03:30:21;7.10;99.90
22968;DHT22;11650;48.106;-1.696;2024-03-29T03:32:47;7.10;99.90
22968;DHT22;11650;48.106;-1.696;2024-03-29T03:35:13;7.10;99.90
22968;DHT22;11650;48.106;-1.696;2024-03-29T03:37:39;7.10;99.90
22968;DHT22;11650;48.106;-1.696;2024-03-29T03:40:05;7.00;99.90
22968;DHT22;11650;48.106;-1.696;2024-03-29T03:42:32;7.00;99.90
22968;DHT22;11650;48.106;-1.696;2024-03-29T03:44:58;7.10;99.90
22968;DHT22;11650;48.106;-1.696;2024-03-29T03:47:23;7.10;99.90
22968;DHT22;11650;48.106;-1.696;2024-03-29T03:49:49;7.10;99.90
22968;DHT22;11650;48.106;-1.696;2024-03-29T03:52:15;7.10;99.90
22968;DHT22;11650;48.106;-1.696;2024-03-29T03:54:40;7.20;99.90
22968;DHT22;11650;48.106;-1.696;2024-03-29T03:57:06;7.20;99.90
22968;DHT22;11650;48.106;-1.696;2024-03-29T03:59:32;7.10;99.90
22968;DHT22;11650;48.106;-1.696;2024-03-29T04:01:57;7.20;99.90
22968;DHT22;11650;48.106;-1.696;2024-03-29T04:04:23;7.20;99.90
22968;DHT22;11650;48.106;-1.696;2024-03-29T04:06:49;7.20;99.90
22968;DHT22;11650;48.106;-1.696;2024-03-29T04:09:15;7.20;99.90
22968;DHT22;11650;48.106;-1.696;2024-03-29T04:11:43;7.30;99.90
22968;DHT22;11650;48.106;-1.696;2024-03-29T04:14:09;7.30;99.90
22968;DHT22;11650;48.106;-1.696;2024-03-29T04:16:35;7.30;99.90
22968;DHT22;11650;48.106;-1.696;2024-03-29T04:19:00;7.30;99.90
22968;DHT22;11650;48.106;-1.696;2024-03-29T04:21:26;7.30;99.90
22968;DHT22;11650;48.106;-1.696;2024-03-29T04:23:52;7.30;99.90
22968;DHT22;11650;48.106;-1.696;2024-03-29T04:26:18;7.30;99.90
22968;DHT22;11650;48.106;-1.696;2024-03-29T04:28:44;7.40;99.90
22968;DHT22;11650;48.106;-1.696;2024-03-29T04:31:10;7.40;99.90
22968;DHT22;11650;48.106;-1.696;2024-03-29T04:33:36;7.40;99.90
22968;DHT22;11650;48.106;-1.696;2024-03-29T04:36:03;7.30;99.90
22968;DHT22;11650;48.106;-1.696;2024-03-29T04:38:30;7.30;99.90
22968;DHT22;11650;48.106;-1.696;2024-03-29T04:40:57;7.40;99.90
22968;DHT22;11650;48.106;-1.696;2024-03-29T04:43:27;7.40;99.90
22968;DHT22;11650;48.106;-1.696;2024-03-29T04:46:03;7.30;99.90
22968;DHT22;11650;48.106;-1.696;2024-03-29T04:48:32;7.30;99.90
22968;DHT22;11650;48.106;-1.696;2024-03-29T04:50:57;7.30;99.90
22968;DHT22;11650;48.106;-1.696;2024-03-29T04:53:23;7.30;99.90
22968;DHT22;11650;48.106;-1.696;2024-03-29T04:55:58;7.30;99.90
22968;DHT22;11650;48.106;-1.696;2024-03-29T04:58:25;7.30;99.90
22968;DHT22;11650;48.106;-1.696;2024-03-29T05:00:51;7.30;99.90
22968;DHT22;11650;48.106;-1.696;2024-03-29T05:03:18;7.30;99.90
22968;DHT22;11650;48.106;-1.696;2024-03-29T05:05:45;7.30;99.90
22968;DHT22;11650;48.106;-1.696;2024-03-29T05:08:10;7.30;99.90
22968;DHT22;11650;48.106;-1.696;2024-03-29T05:10:36;7.30;99.90
22968;DHT22;11650;48.106;-1.696;2024-03-29T05:13:03;7.30;99.90
22968;DHT22;11650;48.106;-1.696;2024-03-29T05:15:28;7.30;99.90
22968;DHT22;11650;48.106;-1.696;2024-03-29T05:17:54;7.30;99.90
22968;DHT22;11650;48.106;-1.696;2024-03-29T05:20:20;7.30;99.90
22968;DHT22;11650;48.106;-1.696;2024-03-29T05:22:45;7.30;99.90
22968;DHT22;11650;48.106;-1.696;2024-03-29T05:25:11;7.40;99.90
22968;DHT22;11650;48.106;-1.696;2024-03-29T05:27:37;7.40;99.90
22968;DHT22;11650;48.106;-1.696;2024-03-29T05:30:03;7.40;99.90
22968;DHT22;11650;48.106;-1.696;2024-03-29T05:32:32;7.40;99.90
22968;DHT22;11650;48.106;-1.696;2024-03-29T05:34:57;7.40;99.90
22968;DHT22;11650;48.106;-1.696;2024-03-29T05:37:23;7.50;99.90
22968;DHT22;11650;48.106;-1.696;2024-03-29T05:39:52;7.50;99.90
22968;DHT22;11650;48.106;-1.696;2024-03-29T05:42:25;7.60;99.90
22968;DHT22;11650;48.106;-1.696;2024-03-29T05:44:51;7.50;99.90
22968;DHT22;11650;48.106;-1.696;2024-03-29T05:47:17;7.60;99.90
22968;DHT22;11650;48.106;-1.696;2024-03-29T05:49:42;7.60;99.90
22968;DHT22;11650;48.106;-1.696;2024-03-29T05:52:08;7.70;99.90
22968;DHT22;11650;48.106;-1.696;2024-03-29T05:54:34;7.70;99.90
22968;DHT22;11650;48.106;-1.696;2024-03-29T05:56:59;7.70;99.90
22968;DHT22;11650;48.106;-1.696;2024-03-29T05:59:25;7.70;99.90
22968;DHT22;11650;48.106;-1.696;2024-03-29T06:01:51;7.70;99.90
22968;DHT22;11650;48.106;-1.696;2024-03-29T06:04:16;7.80;99.90
22968;DHT22;11650;48.106;-1.696;2024-03-29T06:06:45;7.80;99.90
22968;DHT22;11650;48.106;-1.696;2024-03-29T06:09:10;7.80;99.90
22968;DHT22;11650;48.106;-1.696;2024-03-29T06:11:36;7.70;99.90
22968;DHT22;11650;48.106;-1.696;2024-03-29T06:14:02;7.80;99.90
22968;DHT22;11650;48.106;-1.696;2024-03-29T06:16:33;7.80;99.90
22968;DHT22;11650;48.106;-1.696;2024-03-29T06:19:17;7.80;99.90
22968;DHT22;11650;48.106;-1.696;2024-03-29T06:21:43;7.80;99.90
22968;DHT22;11650;48.106;-1.696;2024-03-29T06:24:10;7.90;99.90
22968;DHT22;11650;48.106;-1.696;2024-03-29T06:26:40;7.90;99.90
22968;DHT22;11650;48.106;-1.696;2024-03-29T06:29:06;8.00;99.90
22968;DHT22;11650;48.106;-1.696;2024-03-29T06:31:31;8.00;99.90
22968;DHT22;11650;48.106;-1.696;2024-03-29T06:33:58;8.10;99.90
22968;DHT22;11650;48.106;-1.696;2024-03-29T06:36:24;8.10;99.90
22968;DHT22;11650;48.106;-1.696;2024-03-29T06:38:50;8.10;99.90
22968;DHT22;11650;48.106;-1.696;2024-03-29T06:41:16;8.20;99.90
22968;DHT22;11650;48.106;-1.696;2024-03-29T06:43:42;8.30;99.90
22968;DHT22;11650;48.106;-1.696;2024-03-29T06:46:14;8.30;99.90
22968;DHT22;11650;48.106;-1.696;2024-03-29T06:48:40;8.40;99.90
22968;DHT22;11650;48.106;-1.696;2024-03-29T06:51:06;8.50;99.90
22968;DHT22;11650;48.106;-1.696;2024-03-29T06:53:32;8.50;99.90
22968;DHT22;11650;48.106;-1.696;2024-03-29T06:56:00;8.60;99.90
22968;DHT22;11650;48.106;-1.696;2024-03-29T06:58:25;8.80;99.90
22968;DHT22;11650;48.106;-1.696;2024-03-29T07:00:51;8.90;99.90
22968;DHT22;11650;48.106;-1.696;2024-03-29T07:03:18;8.80;99.90
22968;DHT22;11650;48.106;-1.696;2024-03-29T07:05:45;8.60;99.90
22968;DHT22;11650;48.106;-1.696;2024-03-29T07:08:11;8.20;99.90
22968;DHT22;11650;48.106;-1.696;2024-03-29T07:10:37;7.80;99.90
22968;DHT22;11650;48.106;-1.696;2024-03-29T07:13:02;7.70;99.90
22968;DHT22;11650;48.106;-1.696;2024-03-29T07:15:28;7.70;99.90
22968;DHT22;11650;48.106;-1.696;2024-03-29T07:17:54;7.80;99.90
22968;DHT22;11650;48.106;-1.696;2024-03-29T07:20:19;7.90;99.90
22968;DHT22;11650;48.106;-1.696;2024-03-29T07:22:45;7.90;99.90
22968;DHT22;11650;48.106;-1.696;2024-03-29T07:25:11;8.10;99.90
22968;DHT22;11650;48.106;-1.696;2024-03-29T07:27:37;8.10;99.90
22968;DHT22;11650;48.106;-1.696;2024-03-29T07:30:03;8.10;99.90
22968;DHT22;11650;48.106;-1.696;2024-03-29T07:32:30;8.10;99.90
22968;DHT22;11650;48.106;-1.696;2024-03-29T07:34:55;8.10;99.90
22968;DHT22;11650;48.106;-1.696;2024-03-29T07:37:24;8.10;99.90
22968;DHT22;11650;48.106;-1.696;2024-03-29T07:39:49;8.30;99.90
22968;DHT22;11650;48.106;-1.696;2024-03-29T07:42:15;8.40;99.90
22968;DHT22;11650;48.106;-1.696;2024-03-29T07:44:41;8.40;99.90
22968;DHT22;11650;48.106;-1.696;2024-03-29T07:47:07;8.50;99.90
22968;DHT22;11650;48.106;-1.696;2024-03-29T07:49:33;8.60;99.90
22968;DHT22;11650;48.106;-1.696;2024-03-29T07:51:58;8.70;99.90
22968;DHT22;11650;48.106;-1.696;2024-03-29T07:54:25;8.80;99.90
22968;DHT22;11650;48.106;-1.696;2024-03-29T07:56:51;8.90;99.90
22968;DHT22;11650;48.106;-1.696;2024-03-29T07:59:16;9.00;99.90
22968;DHT22;11650;48.106;-1.696;2024-03-29T08:01:45;9.20;99.90
22968;DHT22;11650;48.106;-1.696;2024-03-29T08:04:10;9.20;99.90
22968;DHT22;11650;48.106;-1.696;2024-03-29T08:06:36;9.20;99.90
22968;DHT22;11650;48.106;-1.696;2024-03-29T08:09:02;9.30;99.90
22968;DHT22;11650;48.106;-1.696;2024-03-29T08:11:27;9.20;99.90
22968;DHT22;11650;48.106;-1.696;2024-03-29T08:13:53;9.40;99.90
22968;DHT22;11650;48.106;-1.696;2024-03-29T08:16:19;9.40;99.90
22968;DHT22;11650;48.106;-1.696;2024-03-29T08:18:46;9.70;99.90
22968;DHT22;11650;48.106;-1.696;2024-03-29T08:21:14;9.70;99.90
22968;DHT22;11650;48.106;-1.696;2024-03-29T08:23:40;9.80;99.90
22968;DHT22;11650;48.106;-1.696;2024-03-29T08:26:06;9.80;99.90
22968;DHT22;11650;48.106;-1.696;2024-03-29T08:28:32;9.80;99.90
22968;DHT22;11650;48.106;-1.696;2024-03-29T08:33:25;10.10;99.90
22968;DHT22;11650;48.106;-1.696;2024-03-29T08:35:50;10.20;99.90
22968;DHT22;11650;48.106;-1.696;2024-03-29T08:38:16;10.20;99.90
22968;DHT22;11650;48.106;-1.696;2024-03-29T08:40:42;10.20;99.90
22968;DHT22;11650;48.106;-1.696;2024-03-29T08:43:09;10.20;99.90
22968;DHT22;11650;48.106;-1.696;2024-03-29T08:45:35;10.30;99.90
22968;DHT22;11650;48.106;-1.696;2024-03-29T08:48:06;10.40;99.90
22968;DHT22;11650;48.106;-1.696;2024-03-29T08:50:32;10.40;99.90
22968;DHT22;11650;48.106;-1.696;2024-03-29T08:52:58;10.50;99.90
22968;DHT22;11650;48.106;-1.696;2024-03-29T08:55:24;10.40;99.90
22968;DHT22;11650;48.106;-1.696;2024-03-29T08:57:49;10.40;99.90
22968;DHT22;11650;48.106;-1.696;2024-03-29T09:00:15;10.50;99.90
22968;DHT22;11650;48.106;-1.696;2024-03-29T09:02:41;10.60;99.90
22968;DHT22;11650;48.106;-1.696;2024-03-29T09:05:06;10.50;99.90
22968;DHT22;11650;48.106;-1.696;2024-03-29T09:07:32;10.50;99.90
22968;DHT22;11650;48.106;-1.696;2024-03-29T09:09:57;10.70;99.90
22968;DHT22;11650;48.106;-1.696;2024-03-29T09:12:23;10.70;99.90
22968;DHT22;11650;48.106;-1.696;2024-03-29T09:14:49;10.70;99.90
22968;DHT22;11650;48.106;-1.696;2024-03-29T09:17:16;10.80;99.90
22968;DHT22;11650;48.106;-1.696;2024-03-29T09:19:42;11.00;99.90
22968;DHT22;11650;48.106;-1.696;2024-03-29T09:22:07;11.10;99.90
22968;DHT22;11650;48.106;-1.696;2024-03-29T09:24:33;11.30;99.90
22968;DHT22;11650;48.106;-1.696;2024-03-29T09:27:00;11.40;99.90
22968;DHT22;11650;48.106;-1.696;2024-03-29T09:29:25;11.30;99.90
22968;DHT22;11650;48.106;-1.696;2024-03-29T09:31:51;11.40;99.90
22968;DHT22;11650;48.106;-1.696;2024-03-29T09:34:17;11.40;99.90
22968;DHT22;11650;48.106;-1.696;2024-03-29T09:36:42;11.50;99.90
22968;DHT22;11650;48.106;-1.696;2024-03-29T09:39:08;11.60;99.90
22968;DHT22;11650;48.106;-1.696;2024-03-29T09:41:34;11.70;99.90
22968;DHT22;11650;48.106;-1.696;2024-03-29T09:44:03;11.90;99.90
22968;DHT22;11650;48.106;-1.696;2024-03-29T09:46:33;12.10;99.90
22968;DHT22;11650;48.106;-1.696;2024-03-29T09:48:59;12.10;99.90
22968;DHT22;11650;48.106;-1.696;2024-03-29T09:51:26;12.20;99.90
22968;DHT22;11650;48.106;-1.696;2024-03-29T09:53:53;12.30;99.90
22968;DHT22;11650;48.106;-1.696;2024-03-29T09:56:21;12.40;99.90
22968;DHT22;11650;48.106;-1.696;2024-03-29T09:58:47;12.60;99.90
22968;DHT22;11650;48.106;-1.696;2024-03-29T10:01:13;12.60;99.90
22968;DHT22;11650;48.106;-1.696;2024-03-29T10:03:40;12.60;99.90
22968;DHT22;11650;48.106;-1.696;2024-03-29T10:06:06;12.70;99.90
22968;DHT22;11650;48.106;-1.696;2024-03-29T10:08:38;12.50;99.90
22968;DHT22;11650;48.106;-1.696;2024-03-29T10:11:04;12.30;99.90
22968;DHT22;11650;48.106;-1.696;2024-03-29T10:13:29;12.10;99.90
22968;DHT22;11650;48.106;-1.696;2024-03-29T10:15:56;11.80;99.90
22968;DHT22;11650;48.106;-1.696;2024-03-29T10:18:23;11.40;99.90
22968;DHT22;11650;48.106;-1.696;2024-03-29T10:21:06;11.20;99.90
22968;DHT22;11650;48.106;-1.696;2024-03-29T10:23:35;11.10;99.90
22968;DHT22;11650;48.106;-1.696;2024-03-29T10:26:04;10.90;99.90
22968;DHT22;11650;48.106;-1.696;2024-03-29T10:28:34;10.80;99.90
22968;DHT22;11650;48.106;-1.696;2024-03-29T10:31:04;10.90;99.90
22968;DHT22;11650;48.106;-1.696;2024-03-29T10:33:31;10.90;99.90
22968;DHT22;11650;48.106;-1.696;2024-03-29T10:36:01;11.30;99.90
22968;DHT22;11650;48.106;-1.696;2024-03-29T10:38:30;11.40;99.90
22968;DHT22;11650;48.106;-1.696;2024-03-29T10:40:56;11.60;99.90
22968;DHT22;11650;48.106;-1.696;2024-03-29T10:43:24;11.90;99.90
22968;DHT22;11650;48.106;-1.696;2024-03-29T10:45:50;11.80;99.90
22968;DHT22;11650;48.106;-1.696;2024-03-29T10:48:19;11.90;99.90
22968;DHT22;11650;48.106;-1.696;2024-03-29T10:50:47;12.00;99.90
22968;DHT22;11650;48.106;-1.696;2024-03-29T10:53:13;12.10;99.90
22968;DHT22;11650;48.106;-1.696;2024-03-29T10:55:42;12.10;99.90
22968;DHT22;11650;48.106;-1.696;2024-03-29T10:58:11;12.40;99.90
22968;DHT22;11650;48.106;-1.696;2024-03-29T11:00:46;12.50;99.90
22968;DHT22;11650;48.106;-1.696;2024-03-29T11:05:50;12.50;99.90
22968;DHT22;11650;48.106;-1.696;2024-03-29T11:08:23;12.40;99.90
22968;DHT22;11650;48.106;-1.696;2024-03-29T11:10:54;12.60;99.90
22968;DHT22;11650;48.106;-1.696;2024-03-29T11:16:05;12.90;99.90
22968;DHT22;11650;48.106;-1.696;2024-03-29T11:18:31;12.90;99.90
22968;DHT22;11650;48.106;-1.696;2024-03-29T11:20:58;13.10;99.90
22968;DHT22;11650;48.106;-1.696;2024-03-29T11:23:26;13.00;99.90
22968;DHT22;11650;48.106;-1.696;2024-03-29T11:25:54;13.10;99.90
22968;DHT22;11650;48.106;-1.696;2024-03-29T11:28:30;13.10;99.90
22968;DHT22;11650;48.106;-1.696;2024-03-29T11:31:17;13.40;99.90
22968;DHT22;11650;48.106;-1.696;2024-03-29T11:36:18;13.50;99.90
22968;DHT22;11650;48.106;-1.696;2024-03-29T11:38:48;13.40;99.90
22968;DHT22;11650;48.106;-1.696;2024-03-29T11:41:16;13.50;99.90
22968;DHT22;11650;48.106;-1.696;2024-03-29T11:43:42;13.60;99.90
22968;DHT22;11650;48.106;-1.696;2024-03-29T11:46:12;13.60;99.90
22968;DHT22;11650;48.106;-1.696;2024-03-29T11:48:39;13.60;99.90
22968;DHT22;11650;48.106;-1.696;2024-03-29T11:51:10;13.60;99.90
22968;DHT22;11650;48.106;-1.696;2024-03-29T11:53:37;13.50;99.90
22968;DHT22;11650;48.106;-1.696;2024-03-29T11:56:04;13.60;99.90
22968;DHT22;11650;48.106;-1.696;2024-03-29T11:58:32;13.50;99.90
22968;DHT22;11650;48.106;-1.696;2024-03-29T12:00:58;13.50;99.90
22968;DHT22;11650;48.106;-1.696;2024-03-29T12:03:26;13.60;99.90
22968;DHT22;11650;48.106;-1.696;2024-03-29T12:05:53;13.70;99.90
22968;DHT22;11650;48.106;-1.696;2024-03-29T12:08:21;13.90;99.90
22968;DHT22;11650;48.106;-1.696;2024-03-29T12:10:47;13.90;99.90
22968;DHT22;11650;48.106;-1.696;2024-03-29T12:13:16;13.80;99.90
22968;DHT22;11650;48.106;-1.696;2024-03-29T12:15:41;13.80;99.90
22968;DHT22;11650;48.106;-1.696;2024-03-29T12:18:07;13.70;99.90
22968;DHT22;11650;48.106;-1.696;2024-03-29T12:20:33;13.60;99.90
22968;DHT22;11650;48.106;-1.696;2024-03-29T12:23:03;13.60;99.90
22968;DHT22;11650;48.106;-1.696;2024-03-29T12:25:29;13.60;99.90
22968;DHT22;11650;48.106;-1.696;2024-03-29T12:27:55;13.60;99.90
22968;DHT22;11650;48.106;-1.696;2024-03-29T12:30:22;13.60;99.90
22968;DHT22;11650;48.106;-1.696;2024-03-29T12:32:48;13.60;99.90
22968;DHT22;11650;48.106;-1.696;2024-03-29T12:35:15;13.30;99.90
22968;DHT22;11650;48.106;-1.696;2024-03-29T12:37:48;13.00;99.90
22968;DHT22;11650;48.106;-1.696;2024-03-29T12:40:16;13.10;99.90
22968;DHT22;11650;48.106;-1.696;2024-03-29T12:42:49;13.20;99.90
22968;DHT22;11650;48.106;-1.696;2024-03-29T12:45:19;13.50;99.90
22968;DHT22;11650;48.106;-1.696;2024-03-29T12:47:46;13.90;99.90
22968;DHT22;11650;48.106;-1.696;2024-03-29T12:50:34;14.10;99.90
22968;DHT22;11650;48.106;-1.696;2024-03-29T12:53:05;14.40;99.90
22968;DHT22;11650;48.106;-1.696;2024-03-29T12:55:31;14.70;99.90
22968;DHT22;11650;48.106;-1.696;2024-03-29T12:58:01;14.60;99.90
22968;DHT22;11650;48.106;-1.696;2024-03-29T13:00:27;14.80;99.90
22968;DHT22;11650;48.106;-1.696;2024-03-29T13:02:53;14.90;99.90
22968;DHT22;11650;48.106;-1.696;2024-03-29T13:05:19;15.30;99.90
22968;DHT22;11650;48.106;-1.696;2024-03-29T13:07:45;15.50;99.90
22968;DHT22;11650;48.106;-1.696;2024-03-29T13:10:12;15.90;99.90
22968;DHT22;11650;48.106;-1.696;2024-03-29T13:12:45;16.30;99.90
22968;DHT22;11650;48.106;-1.696;2024-03-29T13:15:24;16.30;99.90
22968;DHT22;11650;48.106;-1.696;2024-03-29T13:17:51;15.50;99.90
22968;DHT22;11650;48.106;-1.696;2024-03-29T13:20:17;15.20;99.90
22968;DHT22;11650;48.106;-1.696;2024-03-29T13:22:44;15.00;99.90
22968;DHT22;11650;48.106;-1.696;2024-03-29T13:25:15;16.00;99.90
22968;DHT22;11650;48.106;-1.696;2024-03-29T13:27:42;16.70;99.90
22968;DHT22;11650;48.106;-1.696;2024-03-29T13:30:10;16.40;99.90
22968;DHT22;11650;48.106;-1.696;2024-03-29T13:32:36;16.30;99.90
22968;DHT22;11650;48.106;-1.696;2024-03-29T13:35:02;16.90;99.90
22968;DHT22;11650;48.106;-1.696;2024-03-29T13:37:34;16.20;99.90
22968;DHT22;11650;48.106;-1.696;2024-03-29T13:39:59;15.90;99.90
22968;DHT22;11650;48.106;-1.696;2024-03-29T13:42:25;16.00;99.90
22968;DHT22;11650;48.106;-1.696;2024-03-29T13:44:53;16.30;99.90
22968;DHT22;11650;48.106;-1.696;2024-03-29T13:47:19;16.30;99.90
22968;DHT22;11650;48.106;-1.696;2024-03-29T13:49:45;16.40;99.90
22968;DHT22;11650;48.106;-1.696;2024-03-29T13:52:14;16.00;99.90
22968;DHT22;11650;48.106;-1.696;2024-03-29T13:54:44;16.30;99.90
22968;DHT22;11650;48.106;-1.696;2024-03-29T13:57:11;16.20;99.90
22968;DHT22;11650;48.106;-1.696;2024-03-29T13:59:37;16.30;99.90
22968;DHT22;11650;48.106;-1.696;2024-03-29T14:02:03;16.30;99.90
22968;DHT22;11650;48.106;-1.696;2024-03-29T14:04:28;16.10;99.90
22968;DHT22;11650;48.106;-1.696;2024-03-29T14:06:57;16.50;99.90
22968;DHT22;11650;48.106;-1.696;2024-03-29T14:09:23;15.90;99.90
22968;DHT22;11650;48.106;-1.696;2024-03-29T14:11:48;15.30;99.90
22968;DHT22;11650;48.106;-1.696;2024-03-29T14:14:14;15.00;99.90
22968;DHT22;11650;48.106;-1.696;2024-03-29T14:16:40;15.00;99.90
22968;DHT22;11650;48.106;-1.696;2024-03-29T14:19:05;14.90;99.90
22968;DHT22;11650;48.106;-1.696;2024-03-29T14:21:31;14.70;99.90
22968;DHT22;11650;48.106;-1.696;2024-03-29T14:23:57;14.60;99.90
22968;DHT22;11650;48.106;-1.696;2024-03-29T14:26:23;14.50;99.90
22968;DHT22;11650;48.106;-1.696;2024-03-29T14:28:49;14.40;99.90
22968;DHT22;11650;48.106;-1.696;2024-03-29T14:31:15;14.60;99.90
22968;DHT22;11650;48.106;-1.696;2024-03-29T14:33:41;14.80;99.90
22968;DHT22;11650;48.106;-1.696;2024-03-29T14:36:07;14.90;99.90
22968;DHT22;11650;48.106;-1.696;2024-03-29T14:38:33;15.50;99.90
22968;DHT22;11650;48.106;-1.696;2024-03-29T14:40:58;15.60;99.90
22968;DHT22;11650;48.106;-1.696;2024-03-29T14:43:24;15.40;99.90
22968;DHT22;11650;48.106;-1.696;2024-03-29T14:45:49;15.10;99.90
22968;DHT22;11650;48.106;-1.696;2024-03-29T14:48:16;15.20;99.90
22968;DHT22;11650;48.106;-1.696;2024-03-29T14:50:43;15.00;99.90
22968;DHT22;11650;48.106;-1.696;2024-03-29T14:53:09;15.00;99.90
22968;DHT22;11650;48.106;-1.696;2024-03-29T14:55:35;14.80;99.90
22968;DHT22;11650;48.106;-1.696;2024-03-29T14:58:05;14.70;99.90
22968;DHT22;11650;48.106;-1.696;2024-03-29T15:00:31;14.60;99.90
22968;DHT22;11650;48.106;-1.696;2024-03-29T15:02:57;14.60;99.90
22968;DHT22;11650;48.106;-1.696;2024-03-29T15:05:22;14.50;99.90
22968;DHT22;11650;48.106;-1.696;2024-03-29T15:07:51;14.50;99.90
22968;DHT22;11650;48.106;-1.696;2024-03-29T15:10:17;14.80;99.90
22968;DHT22;11650;48.106;-1.696;2024-03-29T15:12:45;14.80;99.90
22968;DHT22;11650;48.106;-1.696;2024-03-29T15:15:12;14.90;99.90
22968;DHT22;11650;48.106;-1.696;2024-03-29T15:17:38;14.90;99.90
22968;DHT22;11650;48.106;-1.696;2024-03-29T15:20:04;14.90;99.90
22968;DHT22;11650;48.106;-1.696;2024-03-29T15:22:31;14.90;99.90
22968;DHT22;11650;48.106;-1.696;2024-03-29T15:24:58;15.10;99.90
22968;DHT22;11650;48.106;-1.696;2024-03-29T15:27:24;15.10;99.90
22968;DHT22;11650;48.106;-1.696;2024-03-29T15:30:14;15.40;99.90
22968;DHT22;11650;48.106;-1.696;2024-03-29T15:32:39;15.10;99.90